Atalissa, Iowa
Current Conditions -  °F | °C
As of 7:35 PM on Thursday 27 Nov 2014 (Local Time) from KMUT Reporting Station
Clear Clear  
Wind Chill: -13°   Ceiling: Unl
Heat Index: -13°   Visibility: 10mi
Dew Point: -16°   Wind: 3mph
Humidity: 79%   Direction: 150°SSE
Pressure: 30.44"   Gusts: NA
Location:  41.57°N, 91.17°W
Report Text: KMUT 280135Z AUTO 15003KT 10SM CLR M13/M16 A3044 RMK AO2
Loading
Personal Weather Stations






























Interactive Weather Map New forecast layout! Learn more

10-Day Weather Forecast

Advertisements
Track Severe Weather on mobile